Time;durP1;ratioP1;P1;durP2;ratioP2;P2;SDS_P1;SDS_P2;PMS_P1;PMS_P2;Temp;Humidity;BMP_temperature;BMP_pressure;BME280_temperature;BME280_humidity;BME280_pressure;Samples;Min_cycle;Max_cycle;Signal;HPM_P1;HPM_P2
2022/08/17 00:00:31;;;;;;;7.90;3.90;;;;;;;23.73;56.75;99151.41;4359521;32;34631;-77
2022/08/17 00:03:39;;;;;;;5.65;4.05;;;;;;;23.77;56.60;99146.63;4352355;32;35935;-77
2022/08/17 00:06:28;;;;;;;7.32;4.45;;;;;;;24.02;56.13;99156.78;4348126;32;33378;-77
2022/08/17 00:09:16;;;;;;;6.85;4.65;;;;;;;23.83;56.92;99148.97;4359327;32;34130;-77
2022/08/17 00:12:04;;;;;;;8.48;4.32;;;;;;;23.81;57.17;99143.00;4357517;32;34623;-77
2022/08/17 00:15:12;;;;;;;8.15;4.32;;;;;;;24.13;55.78;99149.06;4358238;32;35945;-77
2022/08/17 00:17:58;;;;;;;8.13;4.30;;;;;;;23.55;57.74;99154.34;4342625;33;34612;-77
2022/08/17 00:20:45;;;;;;;7.75;4.22;;;;;;;22.69;60.61;99148.41;4344685;33;34127;-77
2022/08/17 00:23:31;;;;;;;8.80;4.55;;;;;;;23.11;59.52;99146.66;4343398;32;34561;-77
2022/08/17 00:26:18;;;;;;;7.75;4.40;;;;;;;23.46;58.12;99156.00;4353538;32;35979;-77
2022/08/17 00:29:24;;;;;;;7.10;4.37;;;;;;;23.40;58.24;99146.47;4343341;33;35724;-77
2022/08/17 00:32:14;;;;;;;9.15;4.28;;;;;;;23.40;58.12;99152.06;4344212;33;35228;-77
2022/08/17 00:35:22;;;;;;;5.72;3.78;;;;;;;22.88;60.50;99147.94;4344389;33;34397;-77
2022/08/17 00:38:10;;;;;;;6.62;4.60;;;;;;;23.39;58.58;99142.84;4344076;33;35060;-77
2022/08/17 00:41:00;;;;;;;7.03;4.22;;;;;;;23.61;57.88;99148.31;4352478;32;33409;-77
2022/08/17 00:43:50;;;;;;;8.45;4.55;;;;;;;23.03;60.01;99151.47;4343064;33;35082;-77
2022/08/17 00:46:39;;;;;;;6.82;4.53;;;;;;;23.13;59.22;99149.81;4344232;33;35615;-77
2022/08/17 00:49:26;;;;;;;7.15;4.20;;;;;;;22.50;61.97;99152.44;4353429;32;35893;-77
2022/08/17 00:52:15;;;;;;;6.30;4.30;;;;;;;23.04;59.88;99160.66;4344172;33;36218;-77
2022/08/17 00:55:02;;;;;;;5.68;3.90;;;;;;;23.39;58.66;99150.47;4344056;33;34406;-77
2022/08/17 00:57:52;;;;;;;6.75;4.80;;;;;;;22.93;60.01;99152.28;4343103;33;35586;-77
2022/08/17 01:00:43;;;;;;;7.35;4.57;;;;;;;22.61;61.34;99153.22;4352948;32;36038;-77
2022/08/17 01:03:30;;;;;;;7.90;4.62;;;;;;;22.31;62.93;99156.47;4342993;33;35473;-77
2022/08/17 01:06:17;;;;;;;8.15;4.85;;;;;;;22.89;60.32;99152.31;4344215;33;34152;-77
2022/08/17 01:09:03;;;;;;;9.23;4.53;;;;;;;22.86;60.62;99158.69;4343963;33;34225;-77
2022/08/17 01:11:51;;;;;;;7.10;4.45;;;;;;;22.47;62.37;99160.84;4343073;33;34586;-77
2022/08/17 01:14:38;;;;;;;6.53;4.18;;;;;;;22.96;60.59;99170.25;4344111;33;34596;-77
2022/08/17 01:17:27;;;;;;;6.82;4.60;;;;;;;22.50;61.99;99176.78;4355378;32;34225;-77
2022/08/17 01:20:15;;;;;;;7.18;4.72;;;;;;;21.99;63.54;99176.81;4358943;32;34683;-77
2022/08/17 01:23:02;;;;;;;7.35;4.37;;;;;;;22.48;61.81;99179.16;4358854;32;34970;-77
2022/08/17 01:25:51;;;;;;;7.20;4.82;;;;;;;22.22;63.18;99172.84;4357933;32;35766;-77
2022/08/17 01:28:38;;;;;;;6.37;4.75;;;;;;;22.77;60.75;99171.50;4358047;32;33885;-77
2022/08/17 01:31:47;;;;;;;7.37;5.05;;;;;;;22.95;59.70;99172.25;4363315;32;34332;-77
2022/08/17 01:34:33;;;;;;;9.05;5.03;;;;;;;22.22;62.49;99184.00;4347229;32;34685;-77
2022/08/17 01:37:37;;;;;;;15.27;5.12;;;;;;;22.40;62.10;99182.00;4357736;32;35542;-77
2022/08/17 01:40:37;;;;;;;8.68;5.20;;;;;;;22.31;62.63;99178.78;4358737;32;34308;-77
2022/08/17 01:43:30;;;;;;;6.95;4.95;;;;;;;21.48;66.37;99177.97;4355783;32;34629;-77
2022/08/17 01:46:29;;;;;;;7.40;4.37;;;;;;;22.02;64.52;99180.78;4358794;32;34697;-77
2022/08/17 01:49:16;;;;;;;9.43;5.30;;;;;;;22.42;62.79;99185.16;4347300;32;35396;-77
2022/08/17 01:52:07;;;;;;;7.50;4.95;;;;;;;22.34;63.14;99183.59;4367259;32;34214;-77
2022/08/17 01:54:54;;;;;;;10.13;4.95;;;;;;;22.69;62.03;99181.91;4349184;32;35601;-77
2022/08/17 01:57:40;;;;;;;9.32;4.82;;;;;;;22.66;62.19;99180.72;4358749;32;34679;-77
2022/08/17 02:00:27;;;;;;;5.80;4.70;;;;;;;22.78;61.69;99185.06;4358303;32;34694;-77
2022/08/17 02:03:34;;;;;;;7.20;4.85;;;;;;;22.89;61.48;99180.22;4361182;32;34830;-77
2022/08/17 02:06:21;;;;;;;7.12;4.93;;;;;;;22.35;63.64;99189.97;4350410;32;35209;-77
2022/08/17 02:09:13;;;;;;;6.18;4.57;;;;;;;22.35;63.48;99185.19;4347680;32;34574;-77
2022/08/17 02:12:02;;;;;;;8.35;5.22;;;;;;;22.53;63.04;99168.38;4358435;32;35538;-77
2022/08/17 02:15:11;;;;;;;8.55;4.90;;;;;;;22.54;62.94;99177.53;4358366;32;34198;-77
2022/08/17 02:17:57;;;;;;;7.18;4.72;;;;;;;22.56;62.50;99172.38;4367257;32;35500;-77
2022/08/17 02:20:43;;;;;;;6.82;4.78;;;;;;;22.45;62.86;99167.63;4358440;32;34716;-77
2022/08/17 02:23:33;;;;;;;7.87;4.80;;;;;;;22.32;63.33;99168.44;4358290;32;35809;-77
2022/08/17 02:26:20;;;;;;;10.00;5.10;;;;;;;22.13;64.31;99178.00;4351632;32;35236;-77
2022/08/17 02:29:13;;;;;;;8.25;5.45;;;;;;;21.67;67.02;99178.81;4356954;32;34278;-77
2022/08/17 02:32:00;;;;;;;9.27;5.82;;;;;;;21.88;66.17;99167.66;4358438;32;33770;-77
2022/08/17 02:34:47;;;;;;;8.00;5.32;;;;;;;21.94;65.90;99173.62;4358156;32;36126;-77
2022/08/17 02:37:34;;;;;;;7.72;4.80;;;;;;;21.95;65.92;99180.81;4358267;32;34231;-77
2022/08/17 02:40:20;;;;;;;9.45;5.22;;;;;;;21.68;68.15;99186.75;4357234;32;34551;-77
2022/08/17 02:43:21;;;;;;;;;;;;;;;21.26;69.61;99184.66;4361348;32;35010;-77
2022/08/17 02:46:07;;;;;;;8.10;4.93;;;;;;;21.38;69.57;99177.97;4358413;32;34476;-77
2022/08/17 02:48:54;;;;;;;10.80;5.40;;;;;;;21.41;69.17;99177.19;4358401;32;33958;-77
2022/08/17 02:51:40;;;;;;;8.23;5.40;;;;;;;21.43;69.30;99174.78;4357777;32;34633;-77
2022/08/17 02:54:26;;;;;;;8.48;5.37;;;;;;;21.62;68.24;99173.62;4358100;32;35036;-77
2022/08/17 02:57:26;;;;;;;7.10;5.03;;;;;;;21.69;67.92;99177.22;4357256;32;33503;-77
2022/08/17 03:00:17;;;;;;;7.22;5.43;;;;;;;21.70;67.72;99175.22;4357942;32;34859;-77
2022/08/17 03:03:05;;;;;;;8.32;5.30;;;;;;;22.00;66.28;99180.41;4356628;32;34656;-77
2022/08/17 03:05:52;;;;;;;9.13;5.10;;;;;;;22.21;64.52;99179.63;4357777;32;35064;-77
2022/08/17 03:08:38;;;;;;;7.85;4.68;;;;;;;22.01;65.43;99177.22;4356021;32;34505;-77
2022/08/17 03:11:24;;;;;;;8.13;4.65;;;;;;;22.07;65.36;99185.19;4357570;32;34230;-77
2022/08/17 03:14:10;;;;;;;10.68;5.43;;;;;;;21.93;66.18;99180.41;4357819;32;33411;-77
2022/08/17 03:16:57;;;;;;;8.40;4.90;;;;;;;21.69;66.86;99182.00;4357424;32;35096;-77
2022/08/17 03:19:43;;;;;;;8.18;5.05;;;;;;;21.81;66.50;99184.41;4357424;32;34456;-77
2022/08/17 03:22:35;;;;;;;7.50;5.00;;;;;;;21.83;66.63;99179.22;4357744;32;35325;-77
2022/08/17 03:25:30;;;;;;;7.85;5.45;;;;;;;21.92;66.07;99184.41;4357748;32;34424;-77
2022/08/17 03:28:20;;;;;;;8.65;6.03;;;;;;;21.79;66.46;99186.78;4345797;32;36034;-77
2022/08/17 03:31:06;;;;;;;7.75;5.60;;;;;;;21.37;68.94;99188.31;4357321;32;34679;-77
2022/08/17 03:33:52;;;;;;;9.10;5.75;;;;;;;21.70;67.18;99189.97;4357656;32;33744;-77
2022/08/17 03:36:39;;;;;;;8.23;5.87;;;;;;;21.92;66.28;99179.63;4357578;32;33462;-77
2022/08/17 03:39:25;;;;;;;7.87;5.55;;;;;;;21.78;66.46;99179.63;4357458;32;36067;-77
2022/08/17 03:42:16;;;;;;;12.07;5.45;;;;;;;21.53;67.73;99190.72;4357441;32;34679;-77
2022/08/17 03:56:40;;;;;;;8.50;6.30;;;;;;;20.93;71.53;99186.56;4355641;32;33777;-77
2022/08/17 03:57:41;;;;;;;10.13;6.15;;;;;;;21.42;68.55;99198.28;4357131;32;34998;-77
2022/08/17 04:00:27;;;;;;;9.15;5.47;;;;;;;21.80;66.83;99199.53;4356913;32;34594;-77
2022/08/17 04:03:13;;;;;;;8.65;5.93;;;;;;;21.28;68.72;99201.78;4357104;32;35701;-77
2022/08/17 04:06:01;;;;;;;8.75;5.45;;;;;;;21.41;68.88;99199.47;4357006;32;34667;-77
2022/08/17 04:08:47;;;;;;;9.05;5.78;;;;;;;21.42;68.46;99196.28;4356881;32;35049;-77
2022/08/17 04:11:34;;;;;;;10.30;5.72;;;;;;;21.54;68.43;99198.72;4356132;32;35563;-77
2022/08/17 04:14:21;;;;;;;10.70;6.00;;;;;;;21.76;67.04;99198.72;4352425;32;34709;-77
2022/08/17 04:17:07;;;;;;;9.93;6.03;;;;;;;21.67;67.40;99201.13;4358925;32;35693;-77
2022/08/17 04:19:54;;;;;;;8.45;5.20;;;;;;;21.56;67.90;99212.25;4359241;32;34369;-77
2022/08/17 04:23:19;;;;;;;9.93;5.78;;;;;;;21.34;69.29;99209.37;4359235;32;33566;-77
2022/08/17 04:26:06;;;;;;;10.02;7.07;;;;;;;21.18;70.21;99210.94;4287404;33;34911;-77
2022/08/17 04:28:53;;;;;;;9.82;6.20;;;;;;;21.45;69.10;99215.00;4297687;33;34163;-77
2022/08/17 04:31:39;;;;;;;8.73;6.32;;;;;;;21.41;68.80;99211.41;4344025;32;34946;-77
2022/08/17 04:34:25;;;;;;;10.50;6.57;;;;;;;21.48;68.28;99217.00;4359052;32;35534;-77
2022/08/17 04:37:12;;;;;;;9.57;6.78;;;;;;;20.68;72.47;99225.41;4358743;32;34975;-77
2022/08/17 04:43:06;;;;;;;10.55;6.80;;;;;;;20.04;77.40;99220.19;4359133;32;33769;-77
2022/08/17 04:46:04;;;;;;;9.57;7.15;;;;;;;20.29;76.15;99223.16;4347588;32;34608;-77
2022/08/17 04:48:52;;;;;;;11.00;6.62;;;;;;;19.51;81.02;99226.00;4347074;32;34929;-76
2022/08/17 04:51:44;;;;;;;9.43;7.07;;;;;;;19.83;79.57;99231.91;4359062;32;34719;-77
2022/08/17 04:54:41;;;;;;;13.70;6.50;;;;;;;20.52;75.19;99228.47;4358448;32;34180;-77
2022/08/17 04:57:27;;;;;;;11.55;6.30;;;;;;;20.40;76.04;99232.34;4357228;32;34613;-77
2022/08/17 05:00:24;;;;;;;10.45;6.62;;;;;;;20.24;77.23;99231.84;4357957;32;35548;-77
2022/08/17 05:03:11;;;;;;;10.40;6.62;;;;;;;20.20;77.29;99231.81;4367987;32;35206;-77
2022/08/17 05:05:57;;;;;;;10.73;6.80;;;;;;;21.30;72.75;99238.44;4368210;32;33812;-77
2022/08/17 05:08:44;;;;;;;9.40;6.82;;;;;;;21.84;70.74;99239.37;4358914;32;34604;-77
2022/08/17 05:11:30;;;;;;;11.00;6.93;;;;;;;22.17;69.59;99248.53;4368209;32;34939;-77
2022/08/17 05:14:16;;;;;;;13.68;7.25;;;;;;;21.68;71.29;99247.31;4358779;32;34929;-77
2022/08/17 05:17:03;;;;;;;9.15;6.87;;;;;;;21.17;72.83;99256.66;4357578;32;33818;-77
2022/08/17 05:19:56;;;;;;;10.05;7.37;;;;;;;21.18;73.61;99258.28;4358531;32;35540;-77
2022/08/17 05:22:50;;;;;;;10.82;6.47;;;;;;;21.71;71.15;99249.28;4358728;32;34983;-77
2022/08/17 05:25:45;;;;;;;10.77;6.87;;;;;;;22.08;69.90;99248.16;4358235;32;34561;-77
2022/08/17 05:28:33;;;;;;;9.57;6.93;;;;;;;22.00;70.10;99250.16;4358658;32;33698;-77
2022/08/17 05:31:20;;;;;;;11.63;7.10;;;;;;;22.45;68.73;99256.13;4357335;32;34286;-77
2022/08/17 05:34:06;;;;;;;9.25;6.68;;;;;;;22.61;68.25;99247.34;4358774;32;36046;-77
2022/08/17 05:36:52;;;;;;;11.90;7.03;;;;;;;22.52;69.08;99255.34;4358489;32;35128;-77
2022/08/17 05:39:39;;;;;;;9.10;6.85;;;;;;;22.51;69.05;99259.31;4357217;32;35095;-77
2022/08/17 05:42:25;;;;;;;9.13;7.00;;;;;;;22.27;70.21;99250.56;4358492;32;34586;-77
2022/08/17 05:45:14;;;;;;;10.90;6.93;;;;;;;22.01;72.52;99258.09;4358370;32;35020;-77
2022/08/17 05:48:00;;;;;;;13.35;7.70;;;;;;;21.73;72.25;99249.72;4358702;32;34731;-77
2022/08/17 05:51:08;;;;;;;11.50;7.32;;;;;;;22.62;69.71;99255.31;4358489;32;34312;-77
2022/08/17 05:54:22;;;;;;;10.57;7.03;;;;;;;22.87;69.05;99248.88;4355710;32;34674;-77
2022/08/17 05:57:32;;;;;;;11.80;7.10;;;;;;;22.50;70.19;99258.53;4357292;32;34966;-77
2022/08/17 06:00:23;;;;;;;10.88;6.82;;;;;;;22.82;67.44;99255.66;4357387;32;34678;-77
2022/08/17 06:03:47;;;;;;;10.77;7.03;;;;;;;22.48;68.03;99255.31;4358457;32;34206;-77
2022/08/17 06:07:25;;;;;;;10.38;7.03;;;;;;;22.62;66.92;99263.69;4347082;32;35217;-77
2022/08/17 06:10:19;;;;;;;11.50;7.05;;;;;;;23.39;63.09;99253.87;4338440;32;35959;-77
2022/08/17 06:13:17;;;;;;;11.90;6.12;;;;;;;24.00;63.25;99251.56;4357236;32;35683;-77
2022/08/17 06:16:08;;;;;;;13.02;6.72;;;;;;;23.50;63.61;99251.84;4349803;32;34211;-77
2022/08/17 06:19:33;;;;;;;13.02;7.00;;;;;;;23.57;63.93;99263.00;4357596;32;35485;-77
2022/08/17 06:22:21;;;;;;;11.32;6.32;;;;;;;23.96;61.76;99250.75;4347689;32;35568;-77
2022/08/17 06:25:14;;;;;;;12.65;7.18;;;;;;;24.55;60.22;99253.50;4355799;32;34989;-77
2022/08/17 06:28:07;;;;;;;15.20;7.60;;;;;;;24.50;60.16;99255.94;4366847;32;35182;-77
2022/08/17 06:31:05;;;;;;;11.10;6.40;;;;;;;24.07;62.37;99259.09;4357245;32;35681;-77
2022/08/17 06:33:53;;;;;;;10.93;7.12;;;;;;;24.13;62.86;99260.22;4346302;32;35017;-77
2022/08/17 06:37:10;;;;;;;12.52;6.93;;;;;;;24.83;60.31;99251.63;4346703;32;34680;-77
2022/08/17 06:40:38;;;;;;;9.93;6.25;;;;;;;25.00;59.05;99255.44;4357407;32;33909;-77
2022/08/17 06:43:33;;;;;;;11.32;6.85;;;;;;;26.16;54.93;99264.72;4345591;32;34627;-77
2022/08/17 06:46:42;;;;;;;9.60;6.40;;;;;;;26.09;56.26;99276.03;4357105;32;34875;-78
2022/08/17 06:49:31;;;;;;;9.48;6.93;;;;;;;25.77;55.46;99272.47;4347007;32;35183;-78
2022/08/17 06:52:25;;;;;;;11.40;6.93;;;;;;;25.90;54.35;99277.53;4358214;32;33863;-77
2022/08/17 06:55:42;;;;;;;9.43;6.30;;;;;;;26.49;54.11;99279.78;4348855;32;34230;-78
2022/08/17 06:58:32;;;;;;;10.25;7.28;;;;;;;26.33;52.51;99277.66;4349728;32;34942;-77
2022/08/17 07:01:23;;;;;;;10.35;7.00;;;;;;;26.41;53.07;99279.13;4349372;32;35054;-78
2022/08/17 07:04:15;;;;;;;9.60;6.90;;;;;;;26.97;51.99;99275.72;4346731;32;34042;-77
2022/08/17 07:08:00;;;;;;;11.00;6.82;;;;;;;26.42;52.78;99279.91;4346763;32;35453;-77
2022/08/17 07:10:12;;;;;;;11.07;7.30;;;;;;;26.97;51.65;99274.94;4357240;32;35043;-77
2022/08/17 07:13:13;;;;;;;10.18;6.93;;;;;;;26.58;51.93;99276.44;4355154;32;35255;-77
2022/08/17 07:16:13;;;;;;;9.95;6.53;;;;;;;26.81;50.90;99273.62;4357740;32;35361;-77
2022/08/17 07:18:59;;;;;;;13.95;7.10;;;;;;;27.17;49.37;99272.16;4366807;32;34574;-78
2022/08/17 07:21:57;;;;;;;13.60;7.47;;;;;;;27.17;49.89;99272.16;4356887;32;35011;-78
2022/08/17 07:24:58;;;;;;;9.80;7.03;;;;;;;26.98;49.18;99280.16;4350352;32;33471;-77
2022/08/17 07:27:49;;;;;;;;;;;;;;;26.90;49.78;99275.88;4348505;32;34210;-78
2022/08/17 07:30:43;;;;;;;7.70;6.25;;;;;;;27.20;48.43;99277.72;4354165;32;35080;-77
2022/08/17 07:33:35;;;;;;;11.10;6.82;;;;;;;28.07;47.06;99273.84;4354767;32;35865;-77
2022/08/17 07:36:23;;;;;;;8.80;6.53;;;;;;;28.14;46.09;99266.00;4357558;32;34716;-78
2022/08/17 07:39:25;;;;;;;8.82;6.70;;;;;;;28.83;46.00;99265.06;4357279;32;34228;-78
2022/08/17 07:42:11;;;;;;;10.70;7.03;;;;;;;29.45;44.49;99267.75;4357169;32;34261;-78
2022/08/17 07:48:17;;;;;;;10.60;6.78;;;;;;;27.97;45.42;99267.22;4356430;32;34654;-78
2022/08/17 07:48:19;;;;;;;13.60;7.53;;;;;;;28.85;43.08;99265.41;4357383;32;34321;-77
2022/08/17 07:51:27;;;;;;;10.20;6.72;;;;;;;28.84;42.59;99272.28;4342503;32;34205;-78
2022/08/17 07:54:35;;;;;;;11.07;7.00;;;;;;;29.02;42.31;99271.78;4347382;32;34327;-78
2022/08/17 07:57:34;;;;;;;9.75;6.55;;;;;;;29.10;42.55;99267.56;4357649;32;35172;-78
2022/08/17 08:00:22;;;;;;;8.18;6.68;;;;;;;29.40;41.59;99268.31;4365967;32;35489;-78
2022/08/17 08:03:26;;;;;;;9.50;6.55;;;;;;;29.08;41.97;99270.81;4358389;32;34245;-78
2022/08/17 08:06:23;;;;;;;10.02;6.25;;;;;;;29.32;42.32;99273.38;4358389;32;34323;-78
2022/08/17 08:09:27;;;;;;;7.87;6.37;;;;;;;29.64;41.16;99271.66;4359318;32;35683;-78
2022/08/17 08:12:28;;;;;;;9.50;6.25;;;;;;;29.96;39.75;99265.78;4350878;32;34443;-78
2022/08/17 08:15:24;;;;;;;9.15;6.20;;;;;;;29.78;39.84;99263.53;4347804;32;34031;-78
2022/08/17 08:18:39;;;;;;;9.40;6.60;;;;;;;29.93;39.44;99266.69;4359173;32;35522;-79
2022/08/17 08:21:50;;;;;;;10.15;6.80;;;;;;;29.17;39.96;99263.75;4351229;32;35887;-78
2022/08/17 08:24:51;;;;;;;9.57;6.57;;;;;;;29.12;40.25;99263.06;4347294;32;34554;-77
2022/08/17 08:27:44;;;;;;;7.32;5.97;;;;;;;29.64;39.43;99266.81;4355257;32;33691;-78
2022/08/17 08:30:31;;;;;;;9.73;6.35;;;;;;;30.20;38.05;99271.09;4357230;32;35466;-78
2022/08/17 08:33:35;;;;;;;10.50;5.97;;;;;;;30.25;38.29;99262.06;4351717;32;35514;-78
2022/08/17 08:36:38;;;;;;;6.82;6.12;;;;;;;30.15;38.38;99268.84;4359391;32;34240;-78
2022/08/17 08:39:57;;;;;;;8.00;5.30;;;;;;;30.43;37.25;99267.91;4359395;32;34230;-78
2022/08/17 08:43:21;;;;;;;6.80;5.45;;;;;;;30.17;37.12;99267.16;4361883;32;34567;-78
2022/08/17 08:46:29;;;;;;;10.15;5.97;;;;;;;30.09;36.89;99273.47;4357378;32;34692;-78
2022/08/17 08:49:50;;;;;;;12.48;5.80;;;;;;;30.98;34.50;99264.81;4366504;32;34505;-78
2022/08/17 08:52:52;;;;;;;6.32;5.40;;;;;;;31.09;35.41;99264.44;4359345;32;34198;-78
2022/08/17 08:56:10;;;;;;;8.35;5.62;;;;;;;31.08;33.04;99257.16;4359384;32;35197;-78
2022/08/17 08:59:21;;;;;;;10.18;5.78;;;;;;;31.40;32.84;99256.00;4347214;32;35911;-78
2022/08/17 09:02:42;;;;;;;8.02;5.82;;;;;;;31.68;32.88;99259.78;4349421;32;34200;-78
2022/08/17 09:05:43;;;;;;;8.25;5.10;;;;;;;31.16;33.47;99258.47;4336636;32;34070;-78
2022/08/17 09:08:49;;;;;;;7.70;5.12;;;;;;;31.44;32.66;99262.31;4359637;32;35053;-79
2022/08/17 09:11:51;;;;;;;9.32;5.00;;;;;;;31.34;31.15;99263.50;4358705;32;34703;-78
2022/08/17 09:15:00;;;;;;;5.90;4.60;;;;;;;31.72;30.18;99270.97;4358684;32;35356;-78
2022/08/17 09:18:03;;;;;;;6.22;5.07;;;;;;;31.37;30.52;99269.03;4367249;32;34312;-79
2022/08/17 09:21:19;;;;;;;8.43;5.65;;;;;;;31.68;31.41;99271.09;4354212;32;34664;-78
2022/08/17 09:24:28;;;;;;;9.80;5.87;;;;;;;31.61;32.44;99271.38;4353227;32;34649;-77
2022/08/17 09:27:17;;;;;;;6.90;5.22;;;;;;;32.30;31.85;99269.47;4352956;32;34297;-78
2022/08/17 09:30:08;;;;;;;8.57;5.60;;;;;;;31.78;31.32;99269.87;4359251;32;35099;-79
2022/08/17 09:33:06;;;;;;;8.52;5.37;;;;;;;31.92;31.65;99279.09;4359378;32;34712;-78
2022/08/17 09:35:59;;;;;;;6.53;5.30;;;;;;;31.66;31.22;99270.00;4350412;32;34903;-78
2022/08/17 09:39:08;;;;;;;6.55;4.80;;;;;;;31.98;30.42;99268.75;4362240;32;34243;-80
2022/08/17 09:42:01;;;;;;;6.72;5.55;;;;;;;32.58;29.84;99261.81;4353991;32;34193;-78
2022/08/17 09:45:25;;;;;;;7.40;5.00;;;;;;;32.53;29.80;99260.38;4363705;32;34628;-77
2022/08/17 09:48:19;;;;;;;7.22;5.55;;;;;;;32.33;30.35;99262.84;4359266;32;35648;-78
2022/08/17 09:51:11;;;;;;;8.43;5.75;;;;;;;32.72;29.89;99254.75;4346645;32;34650;-78
2022/08/17 09:53:58;;;;;;;10.23;5.80;;;;;;;32.13;30.74;99264.06;4359551;32;33718;-78
2022/08/17 09:57:21;;;;;;;7.60;5.47;;;;;;;32.54;30.07;99250.62;4360009;32;35599;-77
2022/08/17 10:00:27;;;;;;;7.10;5.10;;;;;;;31.86;30.13;99264.72;4363968;32;34889;-78
2022/08/17 10:03:52;;;;;;;8.32;5.37;;;;;;;32.79;29.07;99248.75;4359435;32;34634;-78
2022/08/17 10:07:16;;;;;;;7.32;5.55;;;;;;;32.84;28.60;99262.31;4358149;32;34068;-78
2022/08/17 10:10:11;;;;;;;6.97;5.28;;;;;;;33.86;27.85;99249.50;4327023;32;35548;-79
2022/08/17 10:13:18;;;;;;;7.80;5.22;;;;;;;33.05;28.78;99257.78;4353822;32;34910;-78
2022/08/17 10:16:23;;;;;;;9.82;5.03;;;;;;;33.28;27.64;99250.62;4351443;32;34581;-78
2022/08/17 10:19:21;;;;;;;6.70;4.87;;;;;;;32.31;28.18;99262.56;4356281;32;34029;-79
2022/08/17 10:29:15;;;;;;;6.40;5.00;;;;;;;34.40;26.80;99244.81;4357571;32;34588;-79
2022/08/17 10:32:08;;;;;;;7.03;5.28;;;;;;;33.62;27.77;99245.84;4358260;32;34210;-79
2022/08/17 10:35:29;;;;;;;5.65;4.78;;;;;;;33.42;27.75;99255.66;4357087;32;34206;-78
2022/08/17 10:38:41;;;;;;;8.07;5.03;;;;;;;33.80;25.98;99240.06;4357098;32;35001;-79
2022/08/17 10:41:32;;;;;;;5.85;4.70;;;;;;;33.48;25.97;99248.06;4362776;32;35005;-78
2022/08/17 10:44:37;;;;;;;8.65;4.80;;;;;;;33.62;26.43;99257.97;4353301;32;34669;-78
2022/08/17 10:47:52;;;;;;;4.85;4.12;;;;;;;34.17;25.50;99242.75;4357885;32;35657;-80
2022/08/17 10:50:59;;;;;;;6.35;4.57;;;;;;;34.19;24.98;99243.84;4357966;32;35004;-80
2022/08/17 10:53:47;;;;;;;8.25;4.28;;;;;;;34.60;23.79;99243.44;4366000;32;34596;-80
2022/08/17 10:56:45;;;;;;;4.75;4.07;;;;;;;34.77;23.38;99241.72;4358225;32;35824;-79
2022/08/17 10:59:35;;;;;;;6.25;5.00;;;;;;;35.76;22.99;99240.44;4347980;32;35516;-79
2022/08/17 11:02:47;;;;;;;6.45;4.85;;;;;;;34.34;25.58;99231.75;4357408;32;35010;-79
2022/08/17 11:06:02;;;;;;;8.20;5.45;;;;;;;34.38;25.79;99227.47;4350611;32;34564;-79
2022/08/17 11:09:00;;;;;;;6.15;5.00;;;;;;;35.25;25.62;99238.00;4360214;32;33988;-80
2022/08/17 11:12:38;;;;;;;7.22;5.62;;;;;;;34.29;26.95;99230.34;4356148;32;34281;-78
2022/08/17 11:15:40;;;;;;;7.60;6.00;;;;;;;34.06;27.80;99236.81;4317443;33;34797;-79
2022/08/17 11:18:49;;;;;;;24.08;8.00;;;;;;;33.41;28.71;99230.56;4325399;33;34827;-79
2022/08/17 11:21:50;;;;;;;6.43;5.25;;;;;;;33.50;28.55;99242.69;4351738;32;34400;-79
2022/08/17 11:24:43;;;;;;;6.68;5.55;;;;;;;34.65;26.90;99235.03;4347156;32;34654;-79
2022/08/17 11:27:33;;;;;;;7.03;5.55;;;;;;;34.11;27.39;99230.47;4352256;32;34964;-80
2022/08/17 11:30:47;;;;;;;8.57;5.25;;;;;;;34.48;27.34;99217.59;4358276;32;34700;-79
2022/08/17 11:33:33;;;;;;;8.15;5.75;;;;;;;33.74;28.50;99224.94;4358731;32;34309;-79
2022/08/17 11:36:46;;;;;;;7.45;5.32;;;;;;;33.59;28.55;99224.84;4359553;32;34267;-79
2022/08/17 11:39:53;;;;;;;6.90;5.55;;;;;;;33.08;29.44;99217.88;4349310;32;35184;-79
2022/08/17 11:42:57;;;;;;;6.65;4.93;;;;;;;33.82;28.33;99214.81;4359410;32;35588;-80
2022/08/17 11:46:04;;;;;;;11.12;5.87;;;;;;;34.48;26.30;99211.13;4359680;32;33810;-79
2022/08/17 11:51:59;;;;;;;9.35;5.35;;;;;;;34.58;25.98;99206.16;4363456;32;35916;-78
2022/08/17 11:54:47;;;;;;;8.55;5.57;;;;;;;34.48;26.24;99209.06;4359514;32;34713;-79
2022/08/17 11:57:39;;;;;;;6.12;4.72;;;;;;;35.88;24.39;99200.69;4359380;32;33907;-80
2022/08/17 12:00:50;;;;;;;6.00;4.85;;;;;;;35.48;24.58;99202.91;4359428;32;34664;-79
2022/08/17 12:03:37;;;;;;;6.70;4.75;;;;;;;35.41;24.57;99196.81;4350939;32;34907;-78
2022/08/17 12:06:40;;;;;;;5.93;4.72;;;;;;;34.25;25.67;99199.25;4359678;32;34146;-78
2022/08/17 12:09:29;;;;;;;7.70;4.68;;;;;;;34.29;25.06;99199.06;4348323;32;34181;-78
2022/08/17 12:12:19;;;;;;;7.75;4.43;;;;;;;34.02;24.93;99195.13;4358029;32;34620;-79
2022/08/17 12:15:06;;;;;;;20.80;5.17;;;;;;;35.25;23.33;99190.34;4360347;32;34955;-80
2022/08/17 12:17:57;;;;;;;8.70;4.35;;;;;;;35.05;23.80;99190.25;4358056;32;34791;-79
2022/08/17 12:20:51;;;;;;;4.37;3.90;;;;;;;35.24;23.47;99185.94;4358842;32;34363;-78
2022/08/17 12:23:51;;;;;;;7.03;3.90;;;;;;;36.96;20.36;99175.88;4356812;32;35618;-78
2022/08/17 12:26:37;;;;;;;6.15;3.97;;;;;;;36.89;20.92;99174.25;4363912;32;34979;-79
2022/08/17 12:29:24;;;;;;;6.12;4.07;;;;;;;37.42;20.87;99172.13;4351896;32;35380;-78
2022/08/17 12:32:27;;;;;;;5.47;3.72;;;;;;;37.58;19.88;99171.53;4352663;32;34083;-79
2022/08/17 12:35:29;;;;;;;5.03;3.87;;;;;;;36.43;21.92;99168.53;4359400;32;35365;-78
2022/08/17 12:38:15;;;;;;;5.47;3.70;;;;;;;36.80;20.79;99170.78;4357077;32;34703;-78
2022/08/17 12:41:37;;;;;;;5.28;4.05;;;;;;;36.50;20.89;99168.09;4358726;32;34474;-79
2022/08/17 12:44:33;;;;;;;4.15;3.75;;;;;;;35.76;22.28;99172.03;4359870;32;33884;-78
2022/08/17 12:47:20;;;;;;;6.85;3.90;;;;;;;35.90;21.44;99161.88;4351783;32;35459;-80
2022/08/17 12:50:13;;;;;;;6.45;4.20;;;;;;;36.44;21.42;99170.09;4359728;32;34516;-79
2022/08/17 12:53:23;;;;;;;4.47;3.80;;;;;;;35.80;22.16;99166.12;4355210;32;34668;-79
2022/08/17 12:56:11;;;;;;;5.03;3.37;;;;;;;35.99;21.19;99158.88;4351924;32;35002;-77
2022/08/17 12:58:58;;;;;;;4.25;3.58;;;;;;;35.92;21.31;99167.88;4363224;32;35582;-78
2022/08/17 13:01:47;;;;;;;4.97;3.53;;;;;;;36.41;20.31;99166.19;4353594;32;35569;-78
2022/08/17 13:04:38;;;;;;;4.60;3.62;;;;;;;37.29;19.33;99166.09;4359512;32;34813;-78
2022/08/17 13:07:28;;;;;;;3.60;3.30;;;;;;;37.79;18.87;99163.59;4359946;32;34176;-79
2022/08/17 13:10:20;;;;;;;6.25;3.55;;;;;;;36.63;21.04;99174.25;4359946;32;35549;-79
2022/08/17 13:13:21;;;;;;;3.67;3.20;;;;;;;36.42;20.95;99161.25;4359658;32;35138;-79
2022/08/17 13:16:16;;;;;;;5.15;3.72;;;;;;;36.17;20.44;99171.31;4350989;32;34413;-78
2022/08/17 13:19:14;;;;;;;4.35;3.47;;;;;;;36.74;19.15;99164.22;4357014;32;33959;-78
2022/08/17 13:22:00;;;;;;;4.55;3.58;;;;;;;36.56;19.79;99159.62;4363251;32;34740;-78
2022/08/17 13:24:53;;;;;;;8.30;3.40;;;;;;;37.19;19.15;99158.97;4366045;32;34874;-79
2022/08/17 13:27:40;;;;;;;7.53;3.50;;;;;;;37.81;18.78;99154.50;4357869;32;35247;-79
2022/08/17 13:30:32;;;;;;;5.03;3.33;;;;;;;37.71;18.16;99156.81;4359386;32;35028;-78
2022/08/17 13:33:30;;;;;;;7.25;3.47;;;;;;;37.32;18.06;99148.69;4354509;32;34306;-78
2022/08/17 13:36:32;;;;;;;4.12;3.42;;;;;;;36.15;19.35;99160.41;4359050;32;34962;-78
2022/08/17 13:39:23;;;;;;;4.22;3.30;;;;;;;36.74;19.00;99150.72;4358796;32;35376;-78
2022/08/17 13:42:49;;;;;;;4.00;3.22;;;;;;;37.46;18.19;99144.12;4347668;32;35049;-78
2022/08/17 13:45:46;;;;;;;5.10;3.28;;;;;;;37.78;18.67;99144.88;4358953;32;34828;-78
2022/08/17 13:48:36;;;;;;;5.60;3.50;;;;;;;37.04;19.56;99145.63;4362869;32;35037;-78
2022/08/17 13:51:25;;;;;;;10.30;3.83;;;;;;;36.33;19.35;99161.41;4351403;32;34589;-78
2022/08/17 13:54:24;;;;;;;7.70;3.67;;;;;;;37.03;18.59;99146.91;4356094;32;34025;-79
2022/08/17 13:57:21;;;;;;;6.07;3.97;;;;;;;36.46;19.74;99153.25;4358262;32;34559;-78
2022/08/17 14:00:16;;;;;;;8.63;4.15;;;;;;;34.76;21.34;99151.94;4359373;32;33808;-78
2022/08/17 14:03:03;;;;;;;6.32;4.20;;;;;;;35.07;21.35;99153.56;4358857;32;34324;-78
2022/08/17 14:05:51;;;;;;;6.18;4.07;;;;;;;35.59;21.50;99145.34;4357526;32;34986;-78
2022/08/17 14:08:37;;;;;;;4.80;3.80;;;;;;;36.43;20.35;99142.84;4353811;32;34333;-78